Harvest Peace — V7VE7 — position and weather

sailwx.info

Track history (hours):
 
Tides and Currents Weather Stations Pressure Air Temp Water Temp Dewpoint Dewpoint Depression Visibility Wind Speed Wind Dir Waves Ship Positions

Harvest Peace

Last reported at 2016-Jun-22 04:33 UTC. Time now 2016-Jun-29 18:26 UTC.
Position N 28°58' E 032°48'.

Length 225 m; draft 12.3 m.

Type: Cargo ship. MMSI: 538004103.

Date/timePositionNaut miles runAvg speedWind from/ knotsBaromVisibWave heightAir tempDewpointWater temp
2016-Jun-22 04:33N 28°58' E 032°48'121 4.5
2016-Jun-21 01:33N 30°57' E 032°19'9 8.9
2016-Jun-21 00:33N 31°06' E 032°18'9 9.0
2016-Jun-20 23:33N 31°15' E 032°18'8 1.6
2016-Jun-20 18:19N 31°23' E 032°19'2 2.8
2016-Jun-20 17:32N 31°25' E 032°17'8 8.1
2016-Jun-20 16:33N 31°31' E 032°13'9 8.6
2016-Jun-20 15:32N 31°38' E 032°05'1211.5
2016-Jun-20 14:31N 31°46' E 031°56'1211.7
2016-Jun-20 13:31N 31°51' E 031°44'3611.7
2016-Jun-20 10:30N 32°05' E 031°05'1111.7
2016-Jun-20 09:33N 32°10' E 030°53'1611.5
2016-Jun-20 08:11N 32°15' E 030°36'711.6
2016-Jun-20 07:33N 32°17' E 030°28'1211.8
2016-Jun-20 06:34N 32°21' E 030°14'4011.8
2016-Jun-20 03:09N 32°33' E 029°29'  
2016-Jun-17 08:33N 36°19' E 014°58'1111.2
2016-Jun-17 07:33N 36°23' E 014°45'1111.2
2016-Jun-17 06:33N 36°26' E 014°32'1111.5
2016-Jun-17 05:34N 36°30' E 014°18'1211.8
2016-Jun-17 04:33N 36°33' E 014°04'1211.8
2016-Jun-17 03:34N 36°37' E 013°50'1212.0
2016-Jun-17 02:34N 36°40' E 013°36'1212.4
2016-Jun-17 01:33N 36°44' E 013°21'1212.2
2016-Jun-17 00:32N 36°48' E 013°07'19811.6
2016-Jun-16 07:24N 37°37' E 009°06'1412.5
2016-Jun-16 06:18N 37°39' E 008°49'2212.4
2016-Jun-16 04:33N 37°37' E 008°21'2412.1
2016-Jun-16 02:34N 37°35' E 007°51'1211.9
2016-Jun-16 01:33N 37°35' E 007°36'7411.9
2016-Jun-15 19:20N 37°28' E 006°03'4512.0
2016-Jun-15 15:33N 37°24' E 005°06'1211.8
2016-Jun-15 14:34N 37°23' E 004°51'1211.9
2016-Jun-15 13:33N 37°23' E 004°36'1212.2
2016-Jun-15 12:34N 37°21' E 004°21'1312.6
2016-Jun-15 11:33N 37°20' E 004°05'1312.7
2016-Jun-15 10:33N 37°19' E 003°49'1212.3
2016-Jun-15 09:34N 37°18' E 003°34'1812.3
2016-Jun-15 08:04N 37°16' E 003°11'3112.4
2016-Jun-15 05:33N 37°10' E 002°33'1312.1
2016-Jun-15 04:29N 37°07' E 002°17'1212.4
2016-Jun-15 03:33N 37°03' E 002°03'1312.6
2016-Jun-15 02:32N 37°00' E 001°48'1212.3
2016-Jun-15 01:33N 36°56' E 001°33'1312.5
2016-Jun-15 00:33N 36°54' E 001°18'1313.2
2016-Jun-14 23:32N 36°50' E 001°02'1313.1
2016-Jun-14 22:33N 36°47' E 000°46'1312.7
2016-Jun-14 21:33N 36°44' E 000°31'1212.3
2016-Jun-14 20:33N 36°40' E 000°16'1211.9
2016-Jun-14 19:32N 36°37' E 000°01'2512.1
2016-Jun-14 17:27N 36°30' W 000°29'1112.1
2016-Jun-14 16:33N 36°27' W 000°42'22012.2
2016-Jun-13 22:33N 36°02' W 005°13'9 9.5
2016-Jun-13 21:33N 36°08' W 005°23'0 0.2
2016-Jun-13 20:31N 36°08' W 005°23'0 0.0
2016-Jun-13 19:28N 36°08' W 005°23'0 0.1
2016-Jun-13 18:31N 36°08' W 005°23'0 0.1
2016-Jun-13 17:31N 36°08' W 005°23'0 0.2
2016-Jun-13 16:31N 36°08' W 005°23'0 0.1
2016-Jun-13 15:31N 36°08' W 005°23'0 0.2
2016-Jun-13 14:31N 36°08' W 005°23'0 0.1
2016-Jun-13 13:31N 36°08' W 005°23'0 0.0
2016-Jun-13 12:31N 36°08' W 005°23'0 0.0
2016-Jun-13 11:31N 36°08' W 005°23'0 0.0
2016-Jun-13 10:28N 36°08' W 005°23'1 1.2
2016-Jun-13 09:33N 36°07' W 005°23'5 5.1
2016-Jun-13 08:33N 36°03' W 005°19'7 7.2
2016-Jun-13 07:33N 35°58' W 005°26'8511.5
2016-Jun-13 00:10N 35°52' W 007°11'711.5
2016-Jun-12 23:33N 35°52' W 007°20'6111.3
2016-Jun-12 18:10N 35°53' W 008°35'1111.2
2016-Jun-12 17:12N 35°53' W 008°48'711.3
2016-Jun-12 16:33N 35°53' W 008°57'1211.7
2016-Jun-12 15:33N 35°53' W 009°11'2711.9
2016-Jun-12 13:17N 35°53' W 009°45'911.8
2016-Jun-12 12:33N 35°54' W 009°55'2611.8
2016-Jun-12 10:19N 35°57' W 010°28'  
Track history (hours):
 
Tides and Currents Weather Stations Pressure Air Temp Water Temp Dewpoint Dewpoint Depression Visibility Wind Speed Wind Dir Waves Ship Positions

Harvest Peace

Last reported at 2016-Jun-22 04:33 UTC. Time now 2016-Jun-29 18:26 UTC.
Position N 28°58' E 032°48'.

Length 225 m; draft 12.3 m.

Type: Cargo ship. MMSI: 538004103.

Date/timePositionNaut miles runAvg speedWind from/ knotsBaromVisibWave heightAir tempDewpointWater temp
2016-Jun-22 04:33N 28°58' E 032°48'121 4.5
2016-Jun-21 01:33N 30°57' E 032°19'9 8.9
2016-Jun-21 00:33N 31°06' E 032°18'9 9.0
2016-Jun-20 23:33N 31°15' E 032°18'8 1.6
2016-Jun-20 18:19N 31°23' E 032°19'2 2.8
2016-Jun-20 17:32N 31°25' E 032°17'8 8.1
2016-Jun-20 16:33N 31°31' E 032°13'9 8.6
2016-Jun-20 15:32N 31°38' E 032°05'1211.5
2016-Jun-20 14:31N 31°46' E 031°56'1211.7
2016-Jun-20 13:31N 31°51' E 031°44'3611.7
2016-Jun-20 10:30N 32°05' E 031°05'1111.7
2016-Jun-20 09:33N 32°10' E 030°53'1611.5
2016-Jun-20 08:11N 32°15' E 030°36'711.6
2016-Jun-20 07:33N 32°17' E 030°28'1211.8
2016-Jun-20 06:34N 32°21' E 030°14'4011.8
2016-Jun-20 03:09N 32°33' E 029°29'  
2016-Jun-17 08:33N 36°19' E 014°58'1111.2
2016-Jun-17 07:33N 36°23' E 014°45'1111.2
2016-Jun-17 06:33N 36°26' E 014°32'1111.5
2016-Jun-17 05:34N 36°30' E 014°18'1211.8
2016-Jun-17 04:33N 36°33' E 014°04'1211.8
2016-Jun-17 03:34N 36°37' E 013°50'1212.0
2016-Jun-17 02:34N 36°40' E 013°36'1212.4
2016-Jun-17 01:33N 36°44' E 013°21'1212.2
2016-Jun-17 00:32N 36°48' E 013°07'19811.6
2016-Jun-16 07:24N 37°37' E 009°06'1412.5
2016-Jun-16 06:18N 37°39' E 008°49'2212.4
2016-Jun-16 04:33N 37°37' E 008°21'2412.1
2016-Jun-16 02:34N 37°35' E 007°51'1211.9
2016-Jun-16 01:33N 37°35' E 007°36'7411.9
2016-Jun-15 19:20N 37°28' E 006°03'4512.0
2016-Jun-15 15:33N 37°24' E 005°06'1211.8
2016-Jun-15 14:34N 37°23' E 004°51'1211.9
2016-Jun-15 13:33N 37°23' E 004°36'1212.2
2016-Jun-15 12:34N 37°21' E 004°21'1312.6
2016-Jun-15 11:33N 37°20' E 004°05'1312.7
2016-Jun-15 10:33N 37°19' E 003°49'1212.3
2016-Jun-15 09:34N 37°18' E 003°34'1812.3
2016-Jun-15 08:04N 37°16' E 003°11'3112.4
2016-Jun-15 05:33N 37°10' E 002°33'1312.1
2016-Jun-15 04:29N 37°07' E 002°17'1212.4
2016-Jun-15 03:33N 37°03' E 002°03'1312.6
2016-Jun-15 02:32N 37°00' E 001°48'1212.3
2016-Jun-15 01:33N 36°56' E 001°33'1312.5
2016-Jun-15 00:33N 36°54' E 001°18'1313.2
2016-Jun-14 23:32N 36°50' E 001°02'1313.1
2016-Jun-14 22:33N 36°47' E 000°46'1312.7
2016-Jun-14 21:33N 36°44' E 000°31'1212.3
2016-Jun-14 20:33N 36°40' E 000°16'1211.9
2016-Jun-14 19:32N 36°37' E 000°01'2512.1
2016-Jun-14 17:27N 36°30' W 000°29'1112.1
2016-Jun-14 16:33N 36°27' W 000°42'22012.2
2016-Jun-13 22:33N 36°02' W 005°13'9 9.5
2016-Jun-13 21:33N 36°08' W 005°23'0 0.2
2016-Jun-13 20:31N 36°08' W 005°23'0 0.0
2016-Jun-13 19:28N 36°08' W 005°23'0 0.1
2016-Jun-13 18:31N 36°08' W 005°23'0 0.1
2016-Jun-13 17:31N 36°08' W 005°23'0 0.2
2016-Jun-13 16:31N 36°08' W 005°23'0 0.1
2016-Jun-13 15:31N 36°08' W 005°23'0 0.2
2016-Jun-13 14:31N 36°08' W 005°23'0 0.1
2016-Jun-13 13:31N 36°08' W 005°23'0 0.0
2016-Jun-13 12:31N 36°08' W 005°23'0 0.0
2016-Jun-13 11:31N 36°08' W 005°23'0 0.0
2016-Jun-13 10:28N 36°08' W 005°23'1 1.2
2016-Jun-13 09:33N 36°07' W 005°23'5 5.1
2016-Jun-13 08:33N 36°03' W 005°19'7 7.2
2016-Jun-13 07:33N 35°58' W 005°26'8511.5
2016-Jun-13 00:10N 35°52' W 007°11'711.5
2016-Jun-12 23:33N 35°52' W 007°20'6111.3
2016-Jun-12 18:10N 35°53' W 008°35'1111.2
2016-Jun-12 17:12N 35°53' W 008°48'711.3
2016-Jun-12 16:33N 35°53' W 008°57'1211.7
2016-Jun-12 15:33N 35°53' W 009°11'2711.9
2016-Jun-12 13:17N 35°53' W 009°45'911.8
2016-Jun-12 12:33N 35°54' W 009°55'2611.8
2016-Jun-12 10:19N 35°57' W 010°28'  

Dump ship's entire track history